Change the Weather History Date:

Monday, October 1, 2012

  Actual Average (KEFC) Record (KEFC)
Temperature  
Mean Temperature 54 °F -  
Max Temperature 66 °F 73 °F 94 °F (1953)
Min Temperature 42 °F 38 °F 19 °F (1985)
Degree Days  
Heating Degree Days 11    
Growing Degree Days 4 (Base 50)    
Moisture  
Dew Point 33 °F    
Average Humidity 51    
Maximum Humidity 87    
Minimum Humidity 21    
Precipitation  
Precipitation 0.00 in - - ()
Sea Level Pressure  
Sea Level Pressure 30.23 in    
Wind  
Wind Speed 5 mph (NW)    
Max Wind Speed 13 mph    
Max Gust Speed -    
Visibility 10 miles    
Events      
Averages and records for this station are not official NWS values.
T = Trace of Precipitation, MM = Missing Value Source: NWS Daily Summary

Daily Weather History Graph

Daily Weather History Graph

Search for Another Location

Airport or City:

Trip Planner

Search our weather history database for the weather conditions in past years. The results will help you decide how hot, cold, wet, or windy it might be!

Date:

Astronomy

Oct. 01, 2012 Rise Set
Actual Time 7:53 AM CDT 7:34 PM CDT
Civil Twilight 7:24 AM CDT 8:03 PM CDT
Nautical Twilight 6:50 AM CDT 8:37 PM CDT
Astronomical Twilight 6:16 AM CDT 9:11 PM CDT
Moon 8:06 PM CDT (10/1) 9:31 AM CDT (10/1)
Length of Visible Light 12h 39m
Length of Day
11h 41m
Full, 98% of the Moon is Illuminated
Oct 1
Full
Oct 8
Last Quarter
Oct 15
New
Oct 21
First Quarter
Oct 29
Full

Hourly Weather History & Observations

Time (CDT) Temp. Windchill Dew Point Humidity Pressure Visibility Wind Dir Wind Speed Gust Speed Precip Events Conditions
12:15 AM 53.6 °F - 41.0 °F 62% 30.22 in 10.0 mi Calm Calm - N/A   Clear
12:35 AM 51.8 °F - 39.2 °F 62% 30.23 in 10.0 mi WSW 4.6 mph - N/A   Scattered Clouds
12:55 AM 51.8 °F - 39.2 °F 62% 30.23 in 10.0 mi WNW 5.8 mph - N/A   Mostly Cloudy
1:15 AM 50.0 °F - 41.0 °F 71% 30.24 in 10.0 mi NW 8.1 mph - N/A   Mostly Cloudy
1:35 AM 51.8 °F - 44.6 °F 76% 30.26 in 10.0 mi North 5.8 mph - N/A   Scattered Clouds
1:55 AM 51.8 °F - 44.6 °F 76% 30.27 in 10.0 mi WSW 5.8 mph - N/A   Mostly Cloudy
2:15 AM 51.8 °F - 42.8 °F 71% 30.28 in 10.0 mi North 4.6 mph - N/A   Overcast
2:35 AM 50.0 °F - 41.0 °F 71% 30.29 in 10.0 mi North 5.8 mph - N/A   Overcast
2:55 AM 50.0 °F - 41.0 °F 71% 30.30 in 10.0 mi NW 5.8 mph - N/A   Overcast
3:15 AM 50.0 °F - 41.0 °F 71% 30.30 in 10.0 mi WNW 3.5 mph - N/A   Overcast
3:35 AM 48.2 °F - 41.0 °F 76% 30.30 in 10.0 mi West 5.8 mph - N/A   Overcast
3:55 AM 48.2 °F - 41.0 °F 76% 30.30 in 10.0 mi WSW 5.8 mph - N/A   Overcast
4:15 AM 48.2 °F - 41.0 °F 76% 30.30 in 10.0 mi WSW 5.8 mph - N/A   Overcast
4:35 AM 48.2 °F - 41.0 °F 76% 30.30 in 10.0 mi West 4.6 mph - N/A   Overcast
5:15 AM 48.2 °F - 41.0 °F 76% 30.32 in 10.0 mi Calm Calm - N/A   Overcast
5:35 AM 48.2 °F - 41.0 °F 76% 30.31 in 10.0 mi WSW 5.8 mph - N/A   Overcast
5:55 AM 48.2 °F - 41.0 °F 76% 30.31 in 10.0 mi West 5.8 mph - N/A   Overcast
6:15 AM 46.4 °F 44.3 °F 39.2 °F 76% 30.32 in 10.0 mi NW 4.6 mph - N/A   Mostly Cloudy
6:35 AM 46.4 °F 43.5 °F 39.2 °F 76% 30.32 in 10.0 mi WNW 5.8 mph - N/A   Partly Cloudy
6:55 AM 44.6 °F 41.4 °F 39.2 °F 81% 30.33 in 10.0 mi NW 5.8 mph - N/A   Mostly Cloudy
7:15 AM 42.8 °F - 39.2 °F 87% 30.32 in 10.0 mi North - - N/A   Scattered Clouds
7:35 AM 44.6 °F - 39.2 °F 81% 30.33 in 10.0 mi Calm Calm - N/A   Mostly Cloudy
7:55 AM 42.8 °F 40.1 °F 39.2 °F 87% 30.34 in 10.0 mi West 4.6 mph - N/A   Overcast
8:15 AM 44.6 °F 40.7 °F 41.0 °F 87% 30.35 in 9.0 mi WNW 6.9 mph - N/A   Overcast
8:35 AM 46.4 °F 42.9 °F 41.0 °F 81% 30.35 in 6.0 mi West 6.9 mph - N/A   Haze
8:55 AM 46.4 °F 43.5 °F 41.0 °F 81% 30.35 in 10.0 mi West 5.8 mph - N/A   Scattered Clouds
9:15 AM 48.2 °F - 41.0 °F 76% 30.35 in 7.0 mi WNW 8.1 mph - N/A   Mostly Cloudy
9:35 AM 48.2 °F - 41.0 °F 76% 30.35 in 9.0 mi WNW 8.1 mph - N/A   Overcast
9:55 AM 48.2 °F - 41.0 °F 76% 30.35 in 10.0 mi WNW 9.2 mph - N/A   Overcast
10:15 AM 50.0 °F - 41.0 °F 71% 30.35 in 10.0 mi NW 9.2 mph - N/A   Scattered Clouds
10:35 AM 50.0 °F - 41.0 °F 71% 30.34 in 10.0 mi West 8.1 mph - N/A   Clear
10:55 AM 53.6 °F - 39.2 °F 58% 30.34 in 10.0 mi NW 10.4 mph - N/A   Clear
11:15 AM 53.6 °F - 39.2 °F 58% 30.34 in 10.0 mi NW 10.4 mph - N/A   Clear
11:35 AM 55.4 °F - 37.4 °F 51% 30.33 in 10.0 mi NW 11.5 mph - N/A   Clear
11:55 AM 55.4 °F - 35.6 °F 47% 30.32 in 10.0 mi NW 8.1 mph - N/A   Clear
12:15 PM 57.2 °F - 32.0 °F 38% 30.31 in 9.0 mi WNW 9.2 mph - N/A   Clear
12:35 PM 57.2 °F - 32.0 °F 38% 30.30 in 10.0 mi WNW 8.1 mph - N/A   Clear
12:55 PM 57.2 °F - 28.4 °F 33% 30.29 in 10.0 mi Calm Calm - N/A   Clear
1:15 PM 59.0 °F - 26.6 °F 29% 30.28 in 10.0 mi NNW 8.1 mph - N/A   Clear
1:35 PM 59.0 °F - 28.4 °F 31% 30.27 in 10.0 mi NNW 6.9 mph - N/A   Clear
1:55 PM 60.8 °F - 28.4 °F 29% 30.26 in 10.0 mi NNW 9.2 mph - N/A   Clear
2:15 PM 62.6 °F - 28.4 °F 27% 30.24 in 10.0 mi North 8.1 mph - N/A   Clear
2:35 PM 62.6 °F - 28.4 °F 27% 30.23 in 5.0 mi North 4.6 mph - N/A   Haze
2:55 PM 62.6 °F - 26.6 °F 26% 30.22 in 10.0 mi NNW 5.8 mph - N/A   Clear
3:15 PM 64.4 °F - 26.6 °F 24% 30.21 in 5.0 mi North 3.5 mph - N/A   Haze
3:35 PM 64.4 °F - 26.6 °F 24% 30.20 in 9.0 mi NNE 3.5 mph - N/A   Clear
3:55 PM 66.2 °F - 24.8 °F 21% 30.19 in 7.0 mi NW 4.6 mph - N/A   Clear
4:15 PM 66.2 °F - 24.8 °F 21% 30.18 in 8.0 mi NE 3.5 mph - N/A   Clear
4:35 PM 66.2 °F - 24.8 °F 21% 30.17 in 10.0 mi NW 4.6 mph - N/A   Clear
4:55 PM 66.2 °F - 24.8 °F 21% 30.16 in 10.0 mi NE 4.6 mph - N/A   Clear
5:15 PM 66.2 °F - 24.8 °F 21% 30.15 in 10.0 mi ENE 3.5 mph - N/A   Clear
5:35 PM 66.2 °F - 24.8 °F 21% 30.14 in 10.0 mi ENE 9.2 mph - N/A   Clear
5:55 PM 64.4 °F - 24.8 °F 22% 30.14 in 10.0 mi NE 8.1 mph - N/A   Clear
6:15 PM 66.2 °F - 24.8 °F 21% 30.14 in 10.0 mi NE 8.1 mph - N/A   Clear
6:35 PM 64.4 °F - 24.8 °F 22% 30.13 in 10.0 mi ESE 12.7 mph - N/A   Clear
6:55 PM 60.8 °F - 24.8 °F 25% 30.12 in 10.0 mi ESE 9.2 mph - N/A   Clear
7:15 PM 59.0 °F - 24.8 °F 27% 30.11 in 10.0 mi ESE 10.4 mph - N/A   Clear
7:35 PM 53.6 °F - 24.8 °F 33% 30.10 in 10.0 mi SE 8.1 mph - N/A   Clear
7:55 PM 53.6 °F - 24.8 °F 33% 30.09 in 10.0 mi North - - N/A   Clear
8:15 PM 53.6 °F - 24.8 °F 33% 30.08 in 10.0 mi SE 5.8 mph - N/A   Clear
8:35 PM 53.6 °F - 26.6 °F 35% 30.07 in 10.0 mi SE 4.6 mph - N/A   Clear
8:55 PM 51.8 °F - 26.6 °F 38% 30.07 in 10.0 mi Calm Calm - N/A   Clear
9:15 PM 53.6 °F - 26.6 °F 35% 30.06 in 10.0 mi Calm Calm - N/A   Clear
9:35 PM 53.6 °F - 26.6 °F 35% 30.05 in 10.0 mi Calm Calm - N/A   Clear
9:55 PM 53.6 °F - 24.8 °F 33% 30.05 in 10.0 mi Calm Calm - N/A   Clear
10:15 PM 53.6 °F - 26.6 °F 35% 30.04 in 10.0 mi Calm Calm - N/A   Clear
10:55 PM 53.6 °F - 26.6 °F 35% 30.01 in 10.0 mi SE 6.9 mph - N/A   Clear
11:15 PM 53.6 °F - 26.6 °F 35% 30.01 in 10.0 mi SE 5.8 mph - N/A   Clear
11:35 PM 51.8 °F - 26.6 °F 38% 29.99 in 10.0 mi East 4.6 mph - N/A   Clear
11:55 PM 50.0 °F - 26.6 °F 40% 29.98 in 10.0 mi SE 5.8 mph - N/A   Clear